McCanna, North Dakota
Current Conditions -  °F | °C
As of 4:58 AM on Saturday 25 Oct 2014 (Local Time) from KRDR Reporting Station
Clear Clear  
Wind Chill: 41°   Ceiling: Unl
Heat Index: 45°   Visibility: 10mi
Dew Point: 34°   Wind: 9mph
Humidity: 65%   Direction: 300°WNW
Pressure: 30"   Gusts: NA
Location:  47.8728°N, 97.7386°W
Report Text: KRDR 250958Z AUTO 30008KT 10SM CLR 07/01 A3000 RMK AO2 SLP166 T00740011
Loading
Personal Weather Stations






























Interactive Weather Map
Tropical Storm Tracking
New forecast layout! Learn more

10-Day Weather Forecast

Advertisements
Track Severe Weather on mobile